createdAt,value
2023-03-02T00:01:58.157Z,101257.84
2023-03-02T00:04:29.662Z,101260.73
2023-03-02T00:07:05.621Z,101263.58
2023-03-02T00:09:34.461Z,101265.39
2023-03-02T00:12:03.403Z,101261.38
2023-03-02T00:14:32.520Z,101262.45
2023-03-02T00:17:03.188Z,101253.14
2023-03-02T00:19:32.102Z,101255.47
2023-03-02T00:22:00.625Z,101258.89
2023-03-02T00:24:29.521Z,101260.58
2023-03-02T00:26:58.822Z,101259.27
2023-03-02T00:29:27.510Z,101260.48
2023-03-02T00:31:56.115Z,101262.05
2023-03-02T00:34:24.770Z,101261.94
2023-03-02T00:36:53.222Z,101260.04
2023-03-02T00:39:21.647Z,101263.95
2023-03-02T00:41:50.281Z,101258.65
2023-03-02T00:44:18.768Z,101257.77
2023-03-02T00:46:47.576Z,101256.73
2023-03-02T00:49:17.938Z,101264.95
2023-03-02T00:51:49.290Z,101262.38
2023-03-02T00:54:17.783Z,101270.17
2023-03-02T00:56:46.801Z,101270.20
2023-03-02T00:59:27.741Z,101272.93
2023-03-02T01:02:07.659Z,101278.33
2023-03-02T01:04:40.726Z,101276.81
2023-03-02T01:07:12.643Z,101282.96
2023-03-02T01:09:42.362Z,101277.17
2023-03-02T01:12:11.633Z,101277.70
2023-03-02T01:14:42.942Z,101274.56
2023-03-02T01:17:11.432Z,101276.63
2023-03-02T01:19:41.469Z,101275.08
2023-03-02T01:22:10.147Z,101273.32
2023-03-02T01:24:44.695Z,101274.41
2023-03-02T01:27:13.572Z,101273.88
2023-03-02T01:29:42.123Z,101273.55
2023-03-02T01:32:10.762Z,101276.13
2023-03-02T01:34:39.752Z,101274.52
2023-03-02T01:37:08.194Z,101265.48
2023-03-02T01:39:36.814Z,101263.48
2023-03-02T01:42:07.313Z,101259.03
2023-03-02T01:44:40.201Z,101257.47
2023-03-02T01:47:15.504Z,101257.28
2023-03-02T01:49:53.631Z,101258.71
2023-03-02T01:52:24.205Z,101260.42
2023-03-02T01:54:54.060Z,101258.27
2023-03-02T01:57:24.254Z,101261.05
2023-03-02T01:59:59.883Z,101257.47
2023-03-02T02:02:28.538Z,101254.19
2023-03-02T02:04:57.454Z,101255.83
2023-03-02T02:07:25.840Z,101254.33
2023-03-02T02:09:56.978Z,101253.56
2023-03-02T02:12:26.422Z,101252.28
2023-03-02T02:15:00.829Z,101246.86
2023-03-02T02:17:30.408Z,101249.54
2023-03-02T02:20:09.721Z,101248.52
2023-03-02T02:22:38.125Z,101251.05
2023-03-02T02:25:10.631Z,101249.11
2023-03-02T02:27:41.093Z,101248.76
2023-03-02T02:30:11.588Z,101246.35
2023-03-02T02:32:40.255Z,101245.33
2023-03-02T02:35:15.007Z,101244.48
2023-03-02T02:37:46.413Z,101245.35
2023-03-02T02:40:22.747Z,101244.40
2023-03-02T02:42:51.860Z,101247.05
2023-03-02T02:45:25.499Z,101249.80
2023-03-02T02:47:55.360Z,101251.27
2023-03-02T02:50:32.414Z,101251.51
2023-03-02T02:53:15.503Z,101248.77
2023-03-02T02:55:47.537Z,101254.16
2023-03-02T02:58:42.621Z,101260.04
2023-03-02T03:01:14.101Z,101263.12
2023-03-02T03:03:46.819Z,101261.77
2023-03-02T03:06:23.453Z,101262.16
2023-03-02T03:08:54.414Z,101263.04
2023-03-02T03:11:29.132Z,101265.66
2023-03-02T03:14:18.877Z,101268.24
2023-03-02T03:16:51.369Z,101262.34
2023-03-02T03:19:27.156Z,101264.58
2023-03-02T03:21:57.623Z,101268.61
2023-03-02T03:24:33.060Z,101267.60
2023-03-02T03:27:02.191Z,101269.27
2023-03-02T03:29:31.733Z,101270.23
2023-03-02T03:32:02.064Z,101269.04
2023-03-02T03:34:41.057Z,101269.49
2023-03-02T03:37:30.410Z,101263.05
2023-03-02T03:40:06.592Z,101269.03
2023-03-02T03:42:39.997Z,101269.84
2023-03-02T03:45:09.190Z,101278.03
2023-03-02T03:47:38.646Z,101281.63
2023-03-02T03:50:09.576Z,101283.46
2023-03-02T03:52:38.740Z,101284.32
2023-03-02T03:55:33.722Z,101273.89
2023-03-02T03:58:03.204Z,101280.21
2023-03-02T04:00:31.690Z,101280.39
2023-03-02T04:03:03.896Z,101277.02
2023-03-02T04:05:33.856Z,101275.17
2023-03-02T04:08:03.867Z,101276.55
2023-03-02T04:10:35.048Z,101281.14
2023-03-02T04:13:04.705Z,101281.55
2023-03-02T04:15:34.599Z,101284.48
2023-03-02T04:18:03.401Z,101282.84
2023-03-02T04:20:33.378Z,101281.09
2023-03-02T04:23:02.132Z,101286.90
2023-03-02T04:25:33.832Z,101290.92
2023-03-02T04:28:08.399Z,101286.48
2023-03-02T04:30:45.155Z,101281.84
2023-03-02T04:33:14.161Z,101280.80
2023-03-02T04:35:43.056Z,101277.27
2023-03-02T04:38:12.796Z,101278.45
2023-03-02T04:40:41.574Z,101279.33
2023-03-02T04:43:11.281Z,101276.80
2023-03-02T04:45:40.914Z,101274.29
2023-03-02T04:48:13.972Z,101276.14
2023-03-02T04:50:45.256Z,101278.73
2023-03-02T04:53:14.771Z,101281.65
2023-03-02T04:55:43.267Z,101280.55
2023-03-02T04:58:14.723Z,101282.30
2023-03-02T05:00:43.109Z,101281.77
2023-03-02T05:03:11.820Z,101279.34
2023-03-02T05:05:40.255Z,101280.49
2023-03-02T05:08:08.996Z,101279.45
2023-03-02T05:10:41.572Z,101275.32
2023-03-02T05:13:10.026Z,101275.04
2023-03-02T05:15:39.964Z,101272.92
2023-03-02T05:18:10.744Z,101275.11
2023-03-02T05:20:39.451Z,101267.62
2023-03-02T05:23:25.314Z,101265.98
2023-03-02T05:25:55.377Z,101264.73
2023-03-02T05:28:27.020Z,101271.64
2023-03-02T05:30:55.838Z,101275.55
2023-03-02T05:33:24.725Z,101280.88
2023-03-02T05:35:53.213Z,101280.36
2023-03-02T05:38:21.661Z,101285.66
2023-03-02T05:40:50.428Z,101290.10
2023-03-02T05:43:20.671Z,101292.09
2023-03-02T05:45:50.333Z,101289.23
2023-03-02T05:48:20.201Z,101290.10
2023-03-02T05:50:48.739Z,101290.98
2023-03-02T05:53:17.232Z,101290.38
2023-03-02T05:55:45.674Z,101292.75
2023-03-02T05:58:15.999Z,101292.30
2023-03-02T06:00:50.661Z,101286.19
2023-03-02T06:03:19.449Z,101286.66
2023-03-02T06:05:52.528Z,101287.84
2023-03-02T06:08:23.309Z,101293.80
2023-03-02T06:10:56.235Z,101297.34
2023-03-02T06:13:24.600Z,101299.98
2023-03-02T06:15:53.134Z,101304.52
2023-03-02T06:18:21.988Z,101306.91
2023-03-02T06:20:50.987Z,101309.98
2023-03-02T06:23:19.980Z,101315.04
2023-03-02T06:25:49.245Z,101317.67
2023-03-02T06:28:20.209Z,101325.05
2023-03-02T06:30:49.181Z,101329.30
2023-03-02T06:33:21.706Z,101330.66
2023-03-02T06:35:50.640Z,101340.27
2023-03-02T06:38:19.259Z,101344.27
2023-03-02T06:40:47.785Z,101345.10
2023-03-02T06:43:17.258Z,101347.93
2023-03-02T06:45:45.815Z,101355.01
2023-03-02T06:48:14.323Z,101362.31
2023-03-02T06:50:42.861Z,101363.68
2023-03-02T06:53:12.482Z,101369.86
2023-03-02T06:55:40.951Z,101379.23
2023-03-02T06:58:13.364Z,101386.91
2023-03-02T07:00:41.847Z,101392.60
2023-03-02T07:03:12.861Z,101399.74
2023-03-02T07:05:41.560Z,101411.10
2023-03-02T07:08:15.696Z,101417.56
2023-03-02T07:10:44.883Z,101418.67
2023-03-02T07:13:13.407Z,101422.17
2023-03-02T07:15:45.640Z,101427.35
2023-03-02T07:18:15.516Z,101433.50
2023-03-02T07:20:43.953Z,101432.30
2023-03-02T07:23:12.993Z,101437.66
2023-03-02T07:25:41.832Z,101440.86
2023-03-02T07:28:12.051Z,101439.80
2023-03-02T07:30:40.587Z,101442.95
2023-03-02T07:33:09.193Z,101445.77
2023-03-02T07:35:37.897Z,101430.28
2023-03-02T07:38:06.407Z,101414.59
2023-03-02T07:40:35.039Z,101401.60
2023-03-02T07:43:03.753Z,101390.08
2023-03-02T07:45:33.869Z,101381.22
2023-03-02T07:48:02.782Z,101371.53
2023-03-02T07:50:33.381Z,101357.26
2023-03-02T07:53:02.136Z,101348.55
2023-03-02T07:55:30.981Z,101336.17
2023-03-02T07:58:00.728Z,101330.64
2023-03-02T08:00:29.870Z,101318.09
2023-03-02T08:02:58.383Z,101301.11
2023-03-02T08:05:28.878Z,101289.34
2023-03-02T08:07:57.357Z,101264.25
2023-03-02T08:10:27.006Z,101250.09
2023-03-02T08:12:55.597Z,101231.23
2023-03-02T08:15:25.627Z,101208.48
2023-03-02T08:17:54.360Z,101190.07
2023-03-02T08:20:23.160Z,101166.30
2023-03-02T08:22:52.479Z,101149.17
2023-03-02T08:25:20.995Z,101130.13
2023-03-02T08:27:49.833Z,101110.61
2023-03-02T08:30:22.521Z,101095.52
2023-03-02T08:32:51.519Z,101081.05
2023-03-02T08:35:22.510Z,101074.52
2023-03-02T08:37:51.856Z,101061.80
2023-03-02T08:40:21.800Z,101047.90
2023-03-02T08:42:57.042Z,101033.60
2023-03-02T08:45:25.949Z,101011.27
2023-03-02T08:47:55.081Z,100972.05
2023-03-02T08:50:23.738Z,100927.70
2023-03-02T08:52:52.731Z,100886.13
2023-03-02T08:55:22.328Z,100845.88
2023-03-02T08:57:50.913Z,100797.98
2023-03-02T09:00:20.711Z,100762.67
2023-03-02T09:02:49.439Z,100736.44
2023-03-02T09:05:18.257Z,100710.35
2023-03-02T09:07:46.898Z,100664.81
2023-03-02T09:10:18.134Z,100640.41
2023-03-02T09:12:48.998Z,100651.89
2023-03-02T09:15:17.780Z,100668.39
2023-03-02T09:17:53.386Z,100683.33
2023-03-02T09:20:23.954Z,100680.73
2023-03-02T09:22:52.607Z,100663.06
2023-03-02T09:25:21.404Z,100644.96
2023-03-02T09:27:50.519Z,100642.47
2023-03-02T09:30:20.014Z,100604.42
2023-03-02T09:32:49.477Z,100553.84
2023-03-02T09:35:18.399Z,100524.21
2023-03-02T09:37:47.200Z,100509.96
2023-03-02T09:40:24.182Z,100512.79
2023-03-02T09:43:17.750Z,100505.81
2023-03-02T09:45:55.089Z,100493.08
2023-03-02T09:48:53.790Z,100504.63
2023-03-02T09:51:33.157Z,100513.11
2023-03-02T09:54:10.925Z,100516.48
2023-03-02T09:56:50.002Z,100524.94
2023-03-02T09:59:38.443Z,100520.42
2023-03-02T10:02:16.286Z,100523.70
2023-03-02T10:04:49.638Z,100530.04
2023-03-02T10:07:24.493Z,100526.55
2023-03-02T10:09:53.002Z,100512.56
2023-03-02T10:12:36.153Z,100508.48
2023-03-02T10:15:43.911Z,100496.36
2023-03-02T10:18:31.022Z,100476.89
2023-03-02T10:21:09.828Z,100484.91
2023-03-02T10:24:05.450Z,100490.04
2023-03-02T10:26:37.909Z,100489.58
2023-03-02T10:29:49.412Z,100494.20
2023-03-02T10:32:27.900Z,100506.92
2023-03-02T10:35:02.549Z,100496.84
2023-03-02T10:37:31.878Z,100492.19
2023-03-02T10:40:11.736Z,100488.80
2023-03-02T10:42:44.210Z,100496.99
2023-03-02T10:45:30.223Z,100506.73
2023-03-02T10:48:13.597Z,100507.44
2023-03-02T10:50:43.238Z,100516.35
2023-03-02T10:53:19.663Z,100517.89
2023-03-02T10:55:53.270Z,100502.36
2023-03-02T10:58:26.243Z,100502.23
2023-03-02T11:00:57.582Z,100510.70
2023-03-02T11:03:26.340Z,100510.67
2023-03-02T11:05:56.203Z,100521.71
2023-03-02T11:08:29.100Z,100538.02
2023-03-02T11:11:01.504Z,100552.45
2023-03-02T11:13:32.598Z,100567.12
2023-03-02T11:16:21.817Z,100595.70
2023-03-02T11:18:50.546Z,100601.19
2023-03-02T11:21:33.521Z,100581.37
2023-03-02T11:24:05.452Z,100566.66
2023-03-02T11:26:58.326Z,100561.02
2023-03-02T11:29:37.607Z,100566.64
2023-03-02T11:32:13.626Z,100595.36
2023-03-02T11:34:54.974Z,100606.20
2023-03-02T11:37:44.731Z,100631.70
2023-03-02T11:40:26.781Z,100650.60
2023-03-02T11:42:56.964Z,100662.69
2023-03-02T11:45:30.569Z,100666.95
2023-03-02T11:48:03.330Z,100675.31
2023-03-02T11:50:34.648Z,100673.30
2023-03-02T11:53:08.286Z,100672.19
2023-03-02T11:55:45.798Z,100669.86
2023-03-02T11:58:18.800Z,100671.44
2023-03-02T12:00:47.980Z,100678.15
2023-03-02T12:03:17.345Z,100681.88
2023-03-02T12:06:01.364Z,100689.27
2023-03-02T12:08:35.459Z,100688.81
2023-03-02T12:11:08.607Z,100704.10
2023-03-02T12:13:38.634Z,100716.55
2023-03-02T12:16:24.256Z,100722.89
2023-03-02T12:18:53.481Z,100723.95
2023-03-02T12:21:23.563Z,100725.31
2023-03-02T12:23:52.531Z,100726.06
2023-03-02T12:26:21.059Z,100723.48
2023-03-02T12:29:00.386Z,100724.09
2023-03-02T12:31:47.154Z,100724.17
2023-03-02T12:34:29.094Z,100733.74
2023-03-02T12:37:00.539Z,100745.78
2023-03-02T12:39:28.996Z,100767.39
2023-03-02T12:42:15.793Z,100772.65
2023-03-02T12:44:52.564Z,100782.71
2023-03-02T12:47:27.505Z,100798.16
2023-03-02T12:50:01.940Z,100798.96
2023-03-02T12:52:35.395Z,100802.41
2023-03-02T12:55:08.282Z,100808.02
2023-03-02T12:57:38.715Z,100814.18
2023-03-02T13:00:15.538Z,100813.64
2023-03-02T13:02:49.392Z,100810.98
2023-03-02T13:05:29.334Z,100811.11
2023-03-02T13:08:06.123Z,100816.98
2023-03-02T13:10:40.684Z,100818.88
2023-03-02T13:13:25.210Z,100821.10
2023-03-02T13:15:55.879Z,100821.10
2023-03-02T13:18:26.074Z,100825.80
2023-03-02T13:20:55.974Z,100825.10
2023-03-02T13:23:24.983Z,100812.59
2023-03-02T13:25:58.375Z,100806.21
2023-03-02T13:28:38.640Z,100793.82
2023-03-02T13:31:23.130Z,100784.60
2023-03-02T13:33:54.852Z,100776.94
2023-03-02T13:36:28.431Z,100779.42
2023-03-02T13:38:59.649Z,100779.03
2023-03-02T13:41:30.106Z,100774.11
2023-03-02T13:44:12.698Z,100760.33
2023-03-02T13:46:42.390Z,100755.02
2023-03-02T13:49:11.834Z,100756.64
2023-03-02T13:51:42.734Z,100738.36
2023-03-02T13:54:17.327Z,100738.50
2023-03-02T13:56:46.149Z,100728.98
2023-03-02T13:59:16.739Z,100717.95
2023-03-02T14:01:45.494Z,100726.27
2023-03-02T14:04:28.079Z,100731.96
2023-03-02T14:07:00.029Z,100716.93
2023-03-02T14:09:28.574Z,100696.77
2023-03-02T14:12:03.390Z,100666.88
2023-03-02T14:14:33.395Z,100643.05
2023-03-02T14:17:01.840Z,100650.81
2023-03-02T14:19:31.847Z,100653.75
2023-03-02T14:22:00.639Z,100652.13
2023-03-02T14:24:29.213Z,100639.05
2023-03-02T14:26:57.634Z,100646.39
2023-03-02T14:29:27.822Z,100658.83
2023-03-02T14:32:00.524Z,100676.76
2023-03-02T14:34:29.902Z,100691.15
2023-03-02T14:36:59.810Z,100698.09
2023-03-02T14:39:43.329Z,100701.80
2023-03-02T14:42:12.661Z,100704.04
2023-03-02T14:44:42.987Z,100713.82
2023-03-02T14:47:11.881Z,100719.16
2023-03-02T14:49:40.428Z,100729.48
2023-03-02T14:52:32.736Z,100741.12
2023-03-02T14:55:03.388Z,100758.12
2023-03-02T14:57:33.984Z,100761.35
2023-03-02T15:00:03.183Z,100761.46
2023-03-02T15:02:32.068Z,100767.94
2023-03-02T15:05:14.269Z,100779.27
2023-03-02T15:07:44.265Z,100784.64
2023-03-02T15:10:18.501Z,100791.73
2023-03-02T15:12:47.011Z,100799.70
2023-03-02T15:15:16.856Z,100808.44
2023-03-02T15:17:45.860Z,100824.13
2023-03-02T15:20:17.642Z,100830.31
2023-03-02T15:22:47.392Z,100836.83
2023-03-02T15:25:17.583Z,100845.75
2023-03-02T15:27:47.162Z,100852.84
2023-03-02T15:30:17.910Z,100861.47
2023-03-02T15:32:47.851Z,100867.55
2023-03-02T15:35:16.560Z,100872.76
2023-03-02T15:37:45.712Z,100875.25
2023-03-02T15:40:15.062Z,100882.65
2023-03-02T15:42:43.525Z,100883.23
2023-03-02T15:45:12.108Z,100889.90
2023-03-02T15:47:40.597Z,100897.02
2023-03-02T15:50:10.723Z,100903.92
2023-03-02T15:52:39.332Z,100908.71
2023-03-02T15:55:08.140Z,100915.27
2023-03-02T15:57:39.256Z,100925.84
2023-03-02T16:00:13.716Z,100932.41
2023-03-02T16:02:43.523Z,100938.52
2023-03-02T16:05:17.410Z,100939.71
2023-03-02T16:07:46.895Z,100949.79
2023-03-02T16:10:16.858Z,100960.77
2023-03-02T16:12:45.282Z,100968.15
2023-03-02T16:15:15.018Z,100973.64
2023-03-02T16:17:44.151Z,100983.03
2023-03-02T16:20:13.210Z,100994.36
2023-03-02T16:22:41.780Z,101004.14
2023-03-02T16:25:10.710Z,101017.66
2023-03-02T16:27:39.506Z,101027.51
2023-03-02T16:30:11.515Z,101035.61
2023-03-02T16:32:40.734Z,101043.70
2023-03-02T16:35:10.303Z,101051.66
2023-03-02T16:37:41.377Z,101062.68
2023-03-02T16:40:11.485Z,101068.30
2023-03-02T16:42:41.729Z,101071.83
2023-03-02T16:45:11.495Z,101074.61
2023-03-02T16:47:40.202Z,101083.96
2023-03-02T16:50:10.543Z,101095.63
2023-03-02T16:52:39.080Z,101103.34
2023-03-02T16:55:11.661Z,101114.71
2023-03-02T16:57:41.126Z,101123.02
2023-03-02T17:00:12.058Z,101131.83
2023-03-02T17:02:41.085Z,101134.41
2023-03-02T17:05:11.559Z,101136.86
2023-03-02T17:07:42.094Z,101138.66
2023-03-02T17:10:14.189Z,101142.75
2023-03-02T17:12:43.483Z,101145.04
2023-03-02T17:15:14.229Z,101150.55
2023-03-02T17:17:42.974Z,101156.21
2023-03-02T17:20:13.277Z,101165.06
2023-03-02T17:22:41.835Z,101172.45
2023-03-02T17:25:11.624Z,101178.56
2023-03-02T17:27:40.804Z,101186.98
2023-03-02T17:30:14.057Z,101198.16
2023-03-02T17:32:42.595Z,101202.73
2023-03-02T17:35:13.112Z,101201.80
2023-03-02T17:37:42.044Z,101205.30
2023-03-02T17:40:14.494Z,101211.83
2023-03-02T17:42:43.805Z,101213.02
2023-03-02T17:45:19.602Z,101211.95
2023-03-02T17:47:49.744Z,101217.48
2023-03-02T17:50:18.192Z,101218.89
2023-03-02T17:52:47.901Z,101225.99
2023-03-02T17:55:16.851Z,101236.48
2023-03-02T17:57:45.517Z,101236.33
2023-03-02T18:00:17.049Z,101237.35
2023-03-02T18:02:46.793Z,101242.51
2023-03-02T18:05:16.099Z,101242.96
2023-03-02T18:07:44.604Z,101245.52
2023-03-02T18:10:13.639Z,101248.55
2023-03-02T18:12:42.723Z,101248.04
2023-03-02T18:15:12.064Z,101252.05
2023-03-02T18:17:40.549Z,101252.41
2023-03-02T18:20:10.227Z,101256.48
2023-03-02T18:22:38.622Z,101252.58
2023-03-02T18:25:08.010Z,101255.84
2023-03-02T18:27:40.525Z,101256.38
2023-03-02T18:30:09.992Z,101256.56
2023-03-02T18:32:39.442Z,101256.92
2023-03-02T18:35:08.262Z,101253.64
2023-03-02T18:37:37.844Z,101248.50
2023-03-02T18:40:07.262Z,101247.89
2023-03-02T18:42:36.666Z,101245.30
2023-03-02T18:45:07.402Z,101245.86
2023-03-02T18:47:36.879Z,101244.75
2023-03-02T18:50:05.807Z,101248.58
2023-03-02T18:52:34.729Z,101245.54
2023-03-02T18:55:04.934Z,101240.47
2023-03-02T18:57:34.258Z,101242.38
2023-03-02T19:00:03.766Z,101244.02
2023-03-02T19:02:32.616Z,101238.50
2023-03-02T19:05:01.926Z,101237.00
2023-03-02T19:07:37.078Z,101234.08
2023-03-02T19:10:07.728Z,101229.96
2023-03-02T19:12:41.324Z,101225.27
2023-03-02T19:15:11.018Z,101224.81
2023-03-02T19:17:40.437Z,101222.99
2023-03-02T19:20:16.888Z,101216.23
2023-03-02T19:22:45.277Z,101218.43
2023-03-02T19:25:13.807Z,101217.64
2023-03-02T19:27:42.282Z,101218.09
2023-03-02T19:30:16.753Z,101213.53
2023-03-02T19:32:45.555Z,101214.98
2023-03-02T19:35:18.118Z,101209.32
2023-03-02T19:37:46.612Z,101210.87
2023-03-02T19:40:17.587Z,101206.82
2023-03-02T19:42:46.431Z,101205.70
2023-03-02T19:45:17.177Z,101209.34
2023-03-02T19:47:47.311Z,101207.70
2023-03-02T19:50:35.646Z,101215.68
2023-03-02T19:53:06.157Z,101209.90
2023-03-02T19:55:34.577Z,101204.86
2023-03-02T19:58:05.109Z,101207.38
2023-03-02T20:00:34.498Z,101198.77
2023-03-02T20:03:06.242Z,101194.96
2023-03-02T20:05:37.390Z,101201.11
2023-03-02T20:08:07.106Z,101193.86
2023-03-02T20:10:38.384Z,101192.65
2023-03-02T20:13:07.069Z,101193.23
2023-03-02T20:15:39.330Z,101195.09
2023-03-02T20:18:10.045Z,101186.04
2023-03-02T20:36:31.945Z,101216.94
2023-03-02T20:39:05.811Z,101185.29
2023-03-02T20:41:34.185Z,101184.88
2023-03-02T20:44:04.099Z,101180.62
2023-03-02T20:46:36.662Z,101183.65
2023-03-02T20:49:09.726Z,101185.75
2023-03-02T20:51:39.342Z,101183.20
2023-03-02T20:54:07.957Z,101180.31
2023-03-02T20:56:37.502Z,101179.77
2023-03-02T20:59:06.213Z,101176.05
2023-03-02T21:01:34.618Z,101174.16
2023-03-02T21:04:03.603Z,101172.73
2023-03-02T21:06:36.558Z,101167.80
2023-03-02T21:09:06.638Z,101169.13
2023-03-02T21:11:41.516Z,101166.21
2023-03-02T21:14:14.358Z,101160.09
2023-03-02T21:16:43.693Z,101161.56
2023-03-02T21:19:18.727Z,101162.55
2023-03-02T21:21:47.439Z,101153.31
2023-03-02T21:24:17.153Z,101156.25
2023-03-02T21:26:46.489Z,101162.83
2023-03-02T21:29:15.260Z,101159.70
2023-03-02T21:31:44.194Z,101158.37
2023-03-02T21:34:13.053Z,101158.95
2023-03-02T21:36:42.865Z,101162.20
2023-03-02T21:39:12.277Z,101162.94
2023-03-02T21:41:40.658Z,101158.50
2023-03-02T21:44:09.372Z,101156.75
2023-03-02T21:46:39.586Z,101154.13
2023-03-02T21:49:08.050Z,101155.78
2023-03-02T21:51:36.530Z,101150.79
2023-03-02T21:54:05.783Z,101151.23
2023-03-02T21:56:35.699Z,101153.89
2023-03-02T21:59:06.165Z,101159.80
2023-03-02T22:01:35.076Z,101158.05
2023-03-02T22:04:03.732Z,101157.49
2023-03-02T22:06:33.500Z,101156.02
2023-03-02T22:09:02.104Z,101153.90
2023-03-02T22:11:33.169Z,101153.23
2023-03-02T22:14:15.929Z,101157.83
2023-03-02T22:16:47.575Z,101163.18
2023-03-02T22:19:31.974Z,101157.50
2023-03-02T22:22:01.419Z,101162.27
2023-03-02T22:24:34.142Z,101157.52
2023-03-02T22:27:29.596Z,101157.13
2023-03-02T22:30:00.297Z,101167.23
2023-03-02T22:32:36.623Z,101153.80
2023-03-02T22:35:22.288Z,101149.45
2023-03-02T22:37:54.759Z,101156.52
2023-03-02T22:40:30.113Z,101153.67
2023-03-02T22:43:31.620Z,101153.85
2023-03-02T22:46:15.658Z,101163.48
2023-03-02T22:48:45.614Z,101161.04
2023-03-02T22:51:15.421Z,101161.54
2023-03-02T22:54:07.897Z,101159.75
2023-03-02T22:56:57.172Z,101166.23
2023-03-02T22:59:27.004Z,101161.70
2023-03-02T23:02:00.221Z,101151.77
2023-03-02T23:04:32.434Z,101152.10
2023-03-02T23:07:01.331Z,101158.44
2023-03-02T23:09:34.219Z,101154.86
2023-03-02T23:12:26.935Z,101150.79
2023-03-02T23:14:58.696Z,101164.52
2023-03-02T23:17:39.194Z,101147.58
2023-03-02T23:20:11.131Z,101147.30
2023-03-02T23:22:40.384Z,101137.41
2023-03-02T23:25:09.441Z,101133.58
2023-03-02T23:27:38.854Z,101133.57
2023-03-02T23:30:07.888Z,101132.33
2023-03-02T23:32:36.853Z,101129.25
2023-03-02T23:35:06.042Z,101127.91
2023-03-02T23:37:35.425Z,101130.64
2023-03-02T23:40:04.589Z,101129.84
2023-03-02T23:42:33.508Z,101130.53
2023-03-02T23:45:01.951Z,101129.71
2023-03-02T23:47:31.480Z,101130.20
2023-03-02T23:50:00.103Z,101137.25
2023-03-02T23:52:28.832Z,101139.52
2023-03-02T23:54:57.403Z,101137.02
2023-03-02T23:57:27.154Z,101138.25
2023-03-02T23:59:56.177Z,101137.82
